createdAt,value
2019-03-21T00:00:49.537Z,10.52
2019-03-21T00:01:47.894Z,10.60
2019-03-21T00:02:47.890Z,10.63
2019-03-21T00:03:47.878Z,10.56
2019-03-21T00:04:47.870Z,10.47
2019-03-21T00:05:47.850Z,10.55
2019-03-21T00:06:47.846Z,10.56
2019-03-21T00:07:47.830Z,10.51
2019-03-21T00:08:47.822Z,10.48
2019-03-21T00:09:47.808Z,10.51
2019-03-21T00:10:47.806Z,10.48
2019-03-21T00:11:47.795Z,10.51
2019-03-21T00:12:47.776Z,10.48
2019-03-21T00:13:47.768Z,10.51
2019-03-21T00:14:47.756Z,10.48
2019-03-21T00:15:47.745Z,10.44
2019-03-21T00:16:47.735Z,10.48
2019-03-21T00:17:47.723Z,10.41
2019-03-21T00:18:47.710Z,10.47
2019-03-21T00:19:47.714Z,10.42
2019-03-21T00:20:47.700Z,10.44
2019-03-21T00:21:47.692Z,10.38
2019-03-21T00:22:47.670Z,10.36
2019-03-21T00:23:47.666Z,10.38
2019-03-21T00:24:47.646Z,10.41
2019-03-21T00:25:47.636Z,10.42
2019-03-21T00:26:47.645Z,10.44
2019-03-21T00:27:47.616Z,10.44
2019-03-21T00:28:47.602Z,10.32
2019-03-21T00:29:47.606Z,10.45
2019-03-21T00:30:47.585Z,10.40
2019-03-21T00:31:47.591Z,10.36
2019-03-21T00:32:47.559Z,10.33
2019-03-21T00:33:47.557Z,10.44
2019-03-21T00:34:47.545Z,10.33
2019-03-21T00:35:47.533Z,10.42
2019-03-21T00:36:47.530Z,10.41
2019-03-21T00:37:47.508Z,10.32
2019-03-21T00:38:47.502Z,10.38
2019-03-21T00:39:47.488Z,10.38
2019-03-21T00:40:47.481Z,10.30
2019-03-21T00:41:47.468Z,10.30
2019-03-21T00:42:47.459Z,10.33
2019-03-21T00:43:47.457Z,10.36
2019-03-21T00:44:47.437Z,10.32
2019-03-21T00:45:47.427Z,10.38
2019-03-21T00:46:47.425Z,10.33
2019-03-21T00:47:47.411Z,10.40
2019-03-21T00:48:47.397Z,10.30
2019-03-21T00:49:47.382Z,10.41
2019-03-21T00:50:47.368Z,10.30
2019-03-21T00:51:47.361Z,10.32
2019-03-21T00:52:47.352Z,10.27
2019-03-21T00:53:47.337Z,10.36
2019-03-21T00:54:47.326Z,10.38
2019-03-21T00:55:47.315Z,10.29
2019-03-21T00:56:47.307Z,10.33
2019-03-21T00:57:47.298Z,10.38
2019-03-21T00:58:47.292Z,10.30
2019-03-21T00:59:47.314Z,10.38
2019-03-21T01:00:47.277Z,10.38
2019-03-21T01:01:47.329Z,10.30
2019-03-21T01:02:47.242Z,10.32
2019-03-21T01:03:47.243Z,10.34
2019-03-21T01:04:47.220Z,10.38
2019-03-21T01:05:47.217Z,10.30
2019-03-21T01:06:47.203Z,10.34
2019-03-21T01:07:47.190Z,10.36
2019-03-21T01:08:47.184Z,10.32
2019-03-21T01:09:47.169Z,10.30
2019-03-21T01:10:47.158Z,10.34
2019-03-21T01:11:47.144Z,10.32
2019-03-21T01:12:47.144Z,10.23
2019-03-21T01:13:47.121Z,10.25
2019-03-21T01:14:47.116Z,10.25
2019-03-21T01:15:47.106Z,10.23
2019-03-21T01:16:47.093Z,10.27
2019-03-21T01:17:47.087Z,10.25
2019-03-21T01:18:47.085Z,10.23
2019-03-21T01:19:47.071Z,10.26
2019-03-21T01:20:47.056Z,10.23
2019-03-21T01:21:47.046Z,10.23
2019-03-21T01:22:47.030Z,10.32
2019-03-21T01:23:47.018Z,10.26
2019-03-21T01:24:47.011Z,10.25
2019-03-21T01:25:47.010Z,10.18
2019-03-21T01:26:46.982Z,10.26
2019-03-21T01:27:46.974Z,10.26
2019-03-21T01:28:46.963Z,10.22
2019-03-21T01:29:46.953Z,10.20
2019-03-21T01:30:46.943Z,10.27
2019-03-21T01:31:46.936Z,10.20
2019-03-21T01:32:46.926Z,10.18
2019-03-21T01:33:46.909Z,10.20
2019-03-21T01:34:46.900Z,10.14
2019-03-21T01:35:46.892Z,10.17
2019-03-21T01:36:46.889Z,10.15
2019-03-21T01:37:46.876Z,10.17
2019-03-21T01:38:46.862Z,10.20
2019-03-21T01:39:46.847Z,10.18
2019-03-21T01:40:46.835Z,10.18
2019-03-21T01:41:46.828Z,10.12
2019-03-21T01:42:46.811Z,10.15
2019-03-21T01:43:46.817Z,10.18
2019-03-21T01:44:46.788Z,10.12
2019-03-21T01:45:46.777Z,10.17
2019-03-21T01:46:46.765Z,10.14
2019-03-21T01:47:46.759Z,10.12
2019-03-21T01:48:46.753Z,10.14
2019-03-21T01:49:46.757Z,10.14
2019-03-21T01:50:46.725Z,10.18
2019-03-21T01:51:46.717Z,10.17
2019-03-21T01:52:46.716Z,10.17
2019-03-21T01:53:46.700Z,10.14
2019-03-21T01:54:46.687Z,10.09
2019-03-21T01:55:46.672Z,10.14
2019-03-21T01:56:46.661Z,10.15
2019-03-21T01:57:46.655Z,10.15
2019-03-21T01:58:46.648Z,10.12
2019-03-21T01:59:46.636Z,10.14
2019-03-21T02:00:46.616Z,10.20
2019-03-21T02:01:46.608Z,10.17
2019-03-21T02:02:46.603Z,10.17
2019-03-21T02:03:46.594Z,10.14
2019-03-21T02:04:46.575Z,10.12
2019-03-21T02:05:46.578Z,10.14
2019-03-21T02:06:46.562Z,10.12
2019-03-21T02:07:46.547Z,10.09
2019-03-21T02:08:46.536Z,10.11
2019-03-21T02:09:46.540Z,10.11
2019-03-21T02:10:46.513Z,10.20
2019-03-21T02:11:46.518Z,10.17
2019-03-21T02:12:46.491Z,10.12
2019-03-21T02:13:46.489Z,10.12
2019-03-21T02:14:52.002Z,10.15
2019-03-21T02:15:47.467Z,10.20
2019-03-21T02:16:46.457Z,10.09
2019-03-21T02:17:46.448Z,10.17
2019-03-21T02:18:46.425Z,10.08
2019-03-21T02:19:46.420Z,10.12
2019-03-21T02:20:46.406Z,10.09
2019-03-21T02:21:46.396Z,10.09
2019-03-21T02:22:46.397Z,10.07
2019-03-21T02:23:46.373Z,10.11
2019-03-21T02:24:46.363Z,10.15
2019-03-21T02:25:46.350Z,10.09
2019-03-21T02:26:46.344Z,10.12
2019-03-21T02:27:46.331Z,10.09
2019-03-21T02:28:46.328Z,10.08
2019-03-21T02:29:46.310Z,10.07
2019-03-21T02:30:46.299Z,10.11
2019-03-21T02:31:46.289Z,10.05
2019-03-21T02:32:46.280Z,10.08
2019-03-21T02:33:46.279Z,10.09
2019-03-21T02:34:46.285Z,10.11
2019-03-21T02:35:46.246Z,10.08
2019-03-21T02:36:46.239Z,10.07
2019-03-21T02:37:46.224Z,10.11
2019-03-21T02:38:46.227Z,10.08
2019-03-21T02:39:58.634Z,10.08
2019-03-21T02:40:47.196Z,10.08
2019-03-21T02:41:46.179Z,10.05
2019-03-21T02:42:46.175Z,10.08
2019-03-21T02:43:46.166Z,10.15
2019-03-21T02:44:46.250Z,10.11
2019-03-21T02:45:46.149Z,10.09
2019-03-21T02:46:46.127Z,10.08
2019-03-21T02:47:46.115Z,10.12
2019-03-21T02:48:46.106Z,10.09
2019-03-21T02:49:46.089Z,10.08
2019-03-21T02:50:46.100Z,10.14
2019-03-21T02:51:46.086Z,10.09
2019-03-21T02:52:46.061Z,10.15
2019-03-21T02:53:46.053Z,10.14
2019-03-21T02:54:46.049Z,10.12
2019-03-21T02:55:46.038Z,10.05
2019-03-21T02:56:46.021Z,10.09
2019-03-21T02:57:46.014Z,10.15
2019-03-21T02:58:46.005Z,10.09
2019-03-21T02:59:45.991Z,10.14
2019-03-21T03:00:45.988Z,10.09
2019-03-21T03:01:45.968Z,10.12
2019-03-21T03:02:45.962Z,10.12
2019-03-21T03:03:45.945Z,10.12
2019-03-21T03:04:45.938Z,10.09
2019-03-21T03:05:45.925Z,10.07
2019-03-21T03:06:45.924Z,10.07
2019-03-21T03:07:45.909Z,10.05
2019-03-21T03:08:45.896Z,10.01
2019-03-21T03:09:45.877Z,10.04
2019-03-21T03:10:45.865Z,10.07
2019-03-21T03:11:45.859Z,10.08
2019-03-21T03:12:45.846Z,10.08
2019-03-21T03:13:45.847Z,10.05
2019-03-21T03:14:45.829Z,10.04
2019-03-21T03:15:45.823Z,10.07
2019-03-21T03:16:45.807Z,10.01
2019-03-21T03:17:45.801Z,10.09
2019-03-21T03:18:45.785Z,10.07
2019-03-21T03:19:45.776Z,10.09
2019-03-21T03:20:45.761Z,10.09
2019-03-21T03:21:45.752Z,10.11
2019-03-21T03:22:45.737Z,10.09
2019-03-21T03:23:45.722Z,10.08
2019-03-21T03:24:45.722Z,10.04
2019-03-21T03:25:45.705Z,10.11
2019-03-21T03:26:45.699Z,10.09
2019-03-21T03:27:45.687Z,10.07
2019-03-21T03:28:45.679Z,10.07
2019-03-21T03:29:45.666Z,10.12
2019-03-21T03:30:45.654Z,10.04
2019-03-21T03:31:45.671Z,10.15
2019-03-21T03:32:45.629Z,10.09
2019-03-21T03:33:45.635Z,10.15
2019-03-21T03:34:45.645Z,10.09
2019-03-21T03:35:45.601Z,10.07
2019-03-21T03:36:45.587Z,10.08
2019-03-21T03:37:45.579Z,10.09
2019-03-21T03:38:45.586Z,10.04
2019-03-21T03:39:45.561Z,10.09
2019-03-21T03:40:45.546Z,10.09
2019-03-21T03:41:45.530Z,10.05
2019-03-21T03:42:45.515Z,10.07
2019-03-21T03:43:45.518Z,10.04
2019-03-21T03:44:45.501Z,10.02
2019-03-21T03:45:45.486Z,10.09
2019-03-21T03:46:45.488Z,10.04
2019-03-21T03:47:45.470Z,10.07
2019-03-21T03:48:45.466Z,10.02
2019-03-21T03:49:45.455Z,10.08
2019-03-21T03:50:45.436Z,10.05
2019-03-21T03:51:45.431Z,10.08
2019-03-21T03:52:45.414Z,10.08
2019-03-21T03:53:45.408Z,9.96
2019-03-21T03:54:45.403Z,10.04
2019-03-21T03:55:45.381Z,9.99
2019-03-21T03:56:45.375Z,10.01
2019-03-21T03:57:45.369Z,9.96
2019-03-21T03:58:45.354Z,9.94
2019-03-21T03:59:45.338Z,10.01
2019-03-21T04:00:45.333Z,9.97
2019-03-21T04:01:45.325Z,10.09
2019-03-21T04:02:45.302Z,10.08
2019-03-21T04:03:45.296Z,10.05
2019-03-21T04:04:45.289Z,10.07
2019-03-21T04:05:45.284Z,10.05
2019-03-21T04:06:45.269Z,10.05
2019-03-21T04:07:45.256Z,10.08
2019-03-21T04:08:45.256Z,10.09
2019-03-21T04:09:45.237Z,10.12
2019-03-21T04:10:45.232Z,10.09
2019-03-21T04:11:45.218Z,10.11
2019-03-21T04:12:45.208Z,10.04
2019-03-21T04:13:45.194Z,10.11
2019-03-21T04:14:45.176Z,10.05
2019-03-21T04:15:52.472Z,10.08
2019-03-21T04:16:46.159Z,10.14
2019-03-21T04:17:45.150Z,10.01
2019-03-21T04:18:45.149Z,10.04
2019-03-21T04:19:45.128Z,10.05
2019-03-21T04:20:45.178Z,10.05
2019-03-21T04:21:45.122Z,10.09
2019-03-21T04:22:45.091Z,10.02
2019-03-21T04:23:45.083Z,9.96
2019-03-21T04:24:45.074Z,9.93
2019-03-21T04:25:45.062Z,9.93
2019-03-21T04:26:45.057Z,10.09
2019-03-21T04:27:45.048Z,9.96
2019-03-21T04:28:45.031Z,9.97
2019-03-21T04:29:45.034Z,10.04
2019-03-21T04:30:45.011Z,10.09
2019-03-21T04:31:44.997Z,10.02
2019-03-21T04:32:44.994Z,10.02
2019-03-21T04:33:44.978Z,9.97
2019-03-21T04:34:44.965Z,10.01
2019-03-21T04:35:44.953Z,9.97
2019-03-21T04:36:44.941Z,9.99
2019-03-21T04:37:44.934Z,10.01
2019-03-21T04:38:44.945Z,9.97
2019-03-21T04:39:44.910Z,9.93
2019-03-21T04:40:44.894Z,9.94
2019-03-21T04:41:44.902Z,9.89
2019-03-21T04:42:44.879Z,9.90
2019-03-21T04:43:44.863Z,9.96
2019-03-21T04:44:44.862Z,9.94
2019-03-21T04:45:44.846Z,10.02
2019-03-21T04:46:44.838Z,9.96
2019-03-21T04:47:44.840Z,9.93
2019-03-21T04:48:44.820Z,9.97
2019-03-21T04:49:44.809Z,9.99
2019-03-21T04:50:44.809Z,9.97
2019-03-21T04:51:44.780Z,10.01
2019-03-21T04:52:44.774Z,9.99
2019-03-21T04:53:44.764Z,9.96
2019-03-21T04:54:44.748Z,10.02
2019-03-21T04:55:44.741Z,9.97
2019-03-21T04:56:44.726Z,9.99
2019-03-21T04:57:44.717Z,9.96
2019-03-21T04:58:44.711Z,9.99
2019-03-21T04:59:44.703Z,9.96
2019-03-21T05:00:44.684Z,10.08
2019-03-21T05:01:44.680Z,10.02
2019-03-21T05:02:44.661Z,9.97
2019-03-21T05:03:44.655Z,9.97
2019-03-21T05:04:44.645Z,9.96
2019-03-21T05:05:44.630Z,9.99
2019-03-21T05:06:44.624Z,10.01
2019-03-21T05:07:44.614Z,10.04
2019-03-21T05:08:44.597Z,9.96
2019-03-21T05:09:44.588Z,9.97
2019-03-21T05:10:44.589Z,9.99
2019-03-21T05:11:44.591Z,10.02
2019-03-21T05:12:44.567Z,9.97
2019-03-21T05:13:44.542Z,10.09
2019-03-21T05:14:44.537Z,9.97
2019-03-21T05:15:44.518Z,10.07
2019-03-21T05:16:44.524Z,9.99
2019-03-21T05:17:44.502Z,9.99
2019-03-21T05:18:44.499Z,9.99
2019-03-21T05:19:44.479Z,10.04
2019-03-21T05:20:44.469Z,10.07
2019-03-21T05:21:44.460Z,10.01
2019-03-21T05:22:44.451Z,9.93
2019-03-21T05:23:44.461Z,10.09
2019-03-21T05:24:44.439Z,10.05
2019-03-21T05:25:44.415Z,10.05
2019-03-21T05:26:44.412Z,10.04
2019-03-21T05:27:44.393Z,10.09
2019-03-21T05:28:44.389Z,10.08
2019-03-21T05:29:44.384Z,10.07
2019-03-21T05:30:44.369Z,10.07
2019-03-21T05:31:44.387Z,10.05
2019-03-21T05:32:44.358Z,10.09
2019-03-21T05:33:44.329Z,10.09
2019-03-21T05:34:44.318Z,10.08
2019-03-21T05:35:44.313Z,10.09
2019-03-21T05:36:44.306Z,10.14
2019-03-21T05:37:44.289Z,10.14
2019-03-21T05:38:44.275Z,10.14
2019-03-21T05:39:44.275Z,10.09
2019-03-21T05:40:44.261Z,10.12
2019-03-21T05:41:44.257Z,10.08
2019-03-21T05:42:44.233Z,10.09
2019-03-21T05:43:44.223Z,10.12
2019-03-21T05:44:44.213Z,10.15
2019-03-21T05:45:44.209Z,10.09
2019-03-21T05:46:44.190Z,10.15
2019-03-21T05:47:44.180Z,10.18
2019-03-21T05:48:44.171Z,10.14
2019-03-21T05:49:44.158Z,10.12
2019-03-21T05:50:44.148Z,10.15
2019-03-21T05:51:44.141Z,10.08
2019-03-21T05:52:44.130Z,10.14
2019-03-21T05:53:44.114Z,10.23
2019-03-21T05:54:44.105Z,10.18
2019-03-21T05:55:44.099Z,10.14
2019-03-21T05:56:44.103Z,10.14
2019-03-21T05:57:44.083Z,10.17
2019-03-21T05:58:44.071Z,10.12
2019-03-21T05:59:44.092Z,10.20
2019-03-21T06:00:44.039Z,10.17
2019-03-21T06:01:44.030Z,10.20
2019-03-21T06:02:44.021Z,10.17
2019-03-21T06:03:44.021Z,10.14
2019-03-21T06:04:43.998Z,10.14
2019-03-21T06:05:44.260Z,10.20
2019-03-21T06:06:43.981Z,10.12
2019-03-21T06:07:43.966Z,10.15
2019-03-21T06:08:43.950Z,10.26
2019-03-21T06:09:43.948Z,10.17
2019-03-21T06:10:43.942Z,10.23
2019-03-21T06:11:43.926Z,10.17
2019-03-21T06:12:43.922Z,10.25
2019-03-21T06:13:43.917Z,10.23
2019-03-21T06:14:43.896Z,10.26
2019-03-21T06:15:43.892Z,10.36
2019-03-21T06:16:43.871Z,10.34
2019-03-21T06:17:43.864Z,10.36
2019-03-21T06:18:43.852Z,10.32
2019-03-21T06:19:43.837Z,10.23
2019-03-21T06:20:43.837Z,10.27
2019-03-21T06:21:43.874Z,10.30
2019-03-21T06:22:43.805Z,10.36
2019-03-21T06:23:43.790Z,10.32
2019-03-21T06:24:43.783Z,10.30
2019-03-21T06:25:43.771Z,10.41
2019-03-21T06:26:43.774Z,10.33
2019-03-21T06:27:43.755Z,10.34
2019-03-21T06:28:43.743Z,10.44
2019-03-21T06:29:43.732Z,10.44
2019-03-21T06:30:43.736Z,10.41
2019-03-21T06:31:43.712Z,10.41
2019-03-21T06:32:43.704Z,10.42
2019-03-21T06:33:43.689Z,10.47
2019-03-21T06:34:43.675Z,10.44
2019-03-21T06:35:43.664Z,10.45
2019-03-21T06:36:43.664Z,10.45
2019-03-21T06:37:43.659Z,10.47
2019-03-21T06:38:43.648Z,10.40
2019-03-21T06:39:43.625Z,10.45
2019-03-21T06:40:43.611Z,10.42
2019-03-21T06:41:43.604Z,10.42
2019-03-21T06:42:43.593Z,10.38
2019-03-21T06:43:43.593Z,10.44
2019-03-21T06:44:43.572Z,10.36
2019-03-21T06:45:47.995Z,10.44
2019-03-21T06:46:49.311Z,10.41
2019-03-21T06:47:44.544Z,10.48
2019-03-21T06:48:43.531Z,10.41
2019-03-21T06:49:43.516Z,10.44
2019-03-21T06:50:43.511Z,10.51
2019-03-21T06:51:43.495Z,10.47
2019-03-21T06:52:43.482Z,10.45
2019-03-21T06:53:43.473Z,10.47
2019-03-21T06:54:43.464Z,10.48
2019-03-21T06:55:43.449Z,10.52
2019-03-21T06:56:43.437Z,10.48
2019-03-21T06:57:43.433Z,10.45
2019-03-21T06:58:43.423Z,10.52
2019-03-21T06:59:43.418Z,10.42
2019-03-21T07:00:43.408Z,10.63
2019-03-21T07:01:43.382Z,10.53
2019-03-21T07:02:43.372Z,10.59
2019-03-21T07:03:43.362Z,10.60
2019-03-21T07:04:43.369Z,10.60
2019-03-21T07:05:43.349Z,10.63
2019-03-21T07:06:43.337Z,10.56
2019-03-21T07:07:43.318Z,10.64
2019-03-21T07:08:43.306Z,10.60
2019-03-21T07:09:43.298Z,10.67
2019-03-21T07:10:43.296Z,10.66
2019-03-21T07:11:43.293Z,10.71
2019-03-21T07:12:43.277Z,10.60
2019-03-21T07:13:43.264Z,10.59
2019-03-21T07:14:43.249Z,10.61
2019-03-21T07:15:43.232Z,10.60
2019-03-21T07:16:43.223Z,10.67
2019-03-21T07:17:43.216Z,10.60
2019-03-21T07:18:43.211Z,10.60
2019-03-21T07:19:43.196Z,10.68
2019-03-21T07:20:43.183Z,10.70
2019-03-21T07:21:43.192Z,10.67
2019-03-21T07:22:43.162Z,10.64
2019-03-21T07:23:43.158Z,10.64
2019-03-21T07:24:43.134Z,10.64
2019-03-21T07:25:43.133Z,10.70
2019-03-21T07:26:43.123Z,10.61
2019-03-21T07:27:43.106Z,10.67
2019-03-21T07:28:43.103Z,10.71
2019-03-21T07:29:43.079Z,10.70
2019-03-21T07:30:43.078Z,10.70
2019-03-21T07:31:43.058Z,10.71
2019-03-21T07:32:43.055Z,10.78
2019-03-21T07:33:43.036Z,10.71
2019-03-21T07:34:43.041Z,10.71
2019-03-21T07:35:43.019Z,10.78
2019-03-21T07:36:43.008Z,10.78
2019-03-21T07:37:42.996Z,10.82
2019-03-21T07:38:42.985Z,10.78
2019-03-21T07:39:42.987Z,10.78
2019-03-21T07:40:42.971Z,10.70
2019-03-21T07:41:42.962Z,10.61
2019-03-21T07:42:42.942Z,10.70
2019-03-21T07:43:42.929Z,10.61
2019-03-21T07:44:42.918Z,10.68
2019-03-21T07:45:42.924Z,10.63
2019-03-21T07:46:42.898Z,10.68
2019-03-21T07:47:42.888Z,10.64
2019-03-21T07:48:42.882Z,10.67
2019-03-21T07:49:42.875Z,10.66
2019-03-21T07:50:42.853Z,10.66
2019-03-21T07:51:45.086Z,10.63
2019-03-21T07:52:42.833Z,10.74
2019-03-21T07:53:42.820Z,10.71
2019-03-21T07:54:42.808Z,10.68
2019-03-21T07:55:42.799Z,10.66
2019-03-21T07:56:42.802Z,10.70
2019-03-21T07:57:42.777Z,10.60
2019-03-21T07:58:42.767Z,10.73
2019-03-21T07:59:42.755Z,10.63
2019-03-21T08:00:42.743Z,10.73
2019-03-21T08:01:42.732Z,10.61
2019-03-21T08:02:42.722Z,10.63
2019-03-21T08:03:42.713Z,10.56
2019-03-21T08:04:42.708Z,10.70
2019-03-21T08:05:42.687Z,10.70
2019-03-21T08:06:42.681Z,10.73
2019-03-21T08:07:42.680Z,10.70
2019-03-21T08:08:42.662Z,10.73
2019-03-21T08:09:42.737Z,10.68
2019-03-21T08:10:42.636Z,10.68
2019-03-21T08:11:42.626Z,10.70
2019-03-21T08:12:42.617Z,10.66
2019-03-21T08:13:42.615Z,10.74
2019-03-21T08:14:42.588Z,10.74
2019-03-21T08:15:42.580Z,10.73
2019-03-21T08:16:42.575Z,10.76
2019-03-21T08:17:42.561Z,10.76
2019-03-21T08:18:42.551Z,10.79
2019-03-21T08:19:42.540Z,10.81
2019-03-21T08:20:42.530Z,10.78
2019-03-21T08:21:42.516Z,10.85
2019-03-21T08:22:42.509Z,10.76
2019-03-21T08:23:42.509Z,10.73
2019-03-21T08:24:42.491Z,10.81
2019-03-21T08:25:42.483Z,10.84
2019-03-21T08:26:42.468Z,10.78
2019-03-21T08:27:42.451Z,10.76
2019-03-21T08:28:42.441Z,10.74
2019-03-21T08:29:42.432Z,10.76
2019-03-21T08:30:42.430Z,10.76
2019-03-21T08:31:42.410Z,10.68
2019-03-21T08:32:42.396Z,10.70
2019-03-21T08:33:42.384Z,10.68
2019-03-21T08:34:42.387Z,10.64
2019-03-21T08:35:42.365Z,10.81
2019-03-21T08:36:42.358Z,10.82
2019-03-21T08:37:42.344Z,10.91
2019-03-21T08:38:42.339Z,10.84
2019-03-21T08:39:42.324Z,10.82
2019-03-21T08:40:42.718Z,10.86
2019-03-21T08:41:42.314Z,10.86
2019-03-21T08:42:42.297Z,10.88
2019-03-21T08:43:42.271Z,10.91
2019-03-21T08:44:42.260Z,10.96
2019-03-21T08:45:42.260Z,10.84
2019-03-21T08:46:42.271Z,10.89
2019-03-21T08:47:42.235Z,10.86
2019-03-21T08:48:42.217Z,10.81
2019-03-21T08:49:42.208Z,10.78
2019-03-21T08:50:42.194Z,10.96
2019-03-21T08:51:42.194Z,10.97
2019-03-21T08:52:42.170Z,11.02
2019-03-21T08:53:42.165Z,10.97
2019-03-21T08:54:42.150Z,11.03
2019-03-21T08:55:42.140Z,10.97
2019-03-21T08:56:42.135Z,10.91
2019-03-21T08:57:42.116Z,10.99
2019-03-21T08:58:42.107Z,10.99
2019-03-21T08:59:42.092Z,10.97
2019-03-21T09:00:42.083Z,10.89
2019-03-21T09:01:42.075Z,10.97
2019-03-21T09:02:42.059Z,11.00
2019-03-21T09:03:42.059Z,10.99
2019-03-21T09:04:42.048Z,11.02
2019-03-21T09:05:42.031Z,11.03
2019-03-21T09:06:42.024Z,11.02
2019-03-21T09:07:42.009Z,11.00
2019-03-21T09:08:41.996Z,11.10
2019-03-21T09:09:41.985Z,11.04
2019-03-21T09:10:41.989Z,11.14
2019-03-21T09:11:41.966Z,11.18
2019-03-21T09:12:42.803Z,11.10
2019-03-21T09:13:41.942Z,11.24
2019-03-21T09:14:41.936Z,11.25
2019-03-21T09:15:41.925Z,11.28
2019-03-21T09:16:41.902Z,11.24
2019-03-21T09:17:41.891Z,11.24
2019-03-21T09:18:41.879Z,11.25
2019-03-21T09:19:41.869Z,11.27
2019-03-21T09:20:41.877Z,11.28
2019-03-21T09:21:41.854Z,11.27
2019-03-21T09:22:41.842Z,11.35
2019-03-21T09:23:41.830Z,11.28
2019-03-21T09:24:41.824Z,11.32
2019-03-21T09:25:41.807Z,11.37
2019-03-21T09:26:41.791Z,11.32
2019-03-21T09:27:41.776Z,11.27
2019-03-21T09:28:41.779Z,11.40
2019-03-21T09:29:52.848Z,11.42
2019-03-21T09:30:42.751Z,11.40
2019-03-21T09:31:41.739Z,11.46
2019-03-21T09:32:41.736Z,11.51
2019-03-21T09:33:41.721Z,11.51
2019-03-21T09:34:41.710Z,11.42
2019-03-21T09:35:41.708Z,11.52
2019-03-21T09:36:41.698Z,11.44
2019-03-21T09:37:41.679Z,11.58
2019-03-21T09:38:41.667Z,11.55
2019-03-21T09:39:41.657Z,11.64
2019-03-21T09:40:41.646Z,11.55
2019-03-21T09:41:41.632Z,11.61
2019-03-21T09:42:41.628Z,11.57
2019-03-21T09:43:41.618Z,11.54
2019-03-21T09:44:41.605Z,11.51
2019-03-21T09:45:41.582Z,11.43
2019-03-21T09:46:50.538Z,11.49
2019-03-21T09:47:42.570Z,11.52
2019-03-21T09:48:41.557Z,11.49
2019-03-21T09:49:41.545Z,11.49
2019-03-21T09:50:41.537Z,11.47
2019-03-21T09:51:41.526Z,11.47
2019-03-21T09:52:41.514Z,11.37
2019-03-21T09:53:41.508Z,11.40
2019-03-21T09:54:41.493Z,11.51
2019-03-21T09:55:41.484Z,11.47
2019-03-21T09:56:41.473Z,11.49
2019-03-21T09:57:41.464Z,11.51
2019-03-21T09:58:41.448Z,11.47
2019-03-21T09:59:41.443Z,11.46
2019-03-21T10:00:41.424Z,11.52
2019-03-21T10:01:41.413Z,11.52
2019-03-21T10:02:41.404Z,11.49
2019-03-21T10:03:41.393Z,11.52
2019-03-21T10:04:41.380Z,11.51
2019-03-21T10:05:41.375Z,11.49
2019-03-21T10:06:41.361Z,11.60
2019-03-21T10:07:41.351Z,11.51
2019-03-21T10:08:41.339Z,11.58
2019-03-21T10:09:41.338Z,11.57
2019-03-21T10:10:41.317Z,11.72
2019-03-21T10:11:41.311Z,11.65
2019-03-21T10:12:41.298Z,11.61
2019-03-21T10:13:41.284Z,11.76
2019-03-21T10:14:41.273Z,11.62
2019-03-21T10:15:41.259Z,11.62
2019-03-21T10:16:41.265Z,11.67
2019-03-21T10:17:41.240Z,11.62
2019-03-21T10:18:41.229Z,11.70
2019-03-21T10:19:41.230Z,11.58
2019-03-21T10:20:41.212Z,11.61
2019-03-21T10:21:43.673Z,11.64
2019-03-21T10:22:41.192Z,11.64
2019-03-21T10:23:41.197Z,11.65
2019-03-21T10:24:41.165Z,11.61
2019-03-21T10:25:41.154Z,11.62
2019-03-21T10:26:41.141Z,11.70
2019-03-21T10:27:41.138Z,11.67
2019-03-21T10:28:41.123Z,11.70
2019-03-21T10:29:41.106Z,11.76
2019-03-21T10:30:41.104Z,11.70
2019-03-21T10:31:41.087Z,11.64
2019-03-21T10:32:41.071Z,11.69
2019-03-21T10:33:41.063Z,11.78
2019-03-21T10:34:41.053Z,11.75
2019-03-21T10:35:41.049Z,11.70
2019-03-21T10:36:41.032Z,11.69
2019-03-21T10:37:41.024Z,11.79
2019-03-21T10:38:41.017Z,11.82
2019-03-21T10:39:41.009Z,11.94
2019-03-21T10:40:40.986Z,11.88
2019-03-21T10:41:40.987Z,11.79
2019-03-21T10:42:40.971Z,11.86
2019-03-21T10:43:40.951Z,11.82
2019-03-21T10:44:40.952Z,11.86
2019-03-21T10:45:40.945Z,11.80
2019-03-21T10:46:40.928Z,11.88
2019-03-21T10:47:40.912Z,11.90
2019-03-21T10:48:40.912Z,11.91
2019-03-21T10:49:40.898Z,11.94
2019-03-21T10:50:40.883Z,12.01
2019-03-21T10:51:40.875Z,12.02
2019-03-21T10:52:40.867Z,11.95
2019-03-21T10:53:40.850Z,11.94
2019-03-21T10:54:40.841Z,11.91
2019-03-21T10:55:40.879Z,11.82
2019-03-21T10:56:40.821Z,11.83
2019-03-21T10:58:50.892Z,11.96
2019-03-21T10:59:50.863Z,11.95
2019-03-21T11:01:21.625Z,11.91
2019-03-21T11:02:21.602Z,11.95
2019-03-21T11:03:52.361Z,12.02
2019-03-21T11:04:52.351Z,12.04
2019-03-21T11:06:23.099Z,12.01
2019-03-21T11:07:23.090Z,11.95
2019-03-21T11:08:53.751Z,11.85
2019-03-21T11:09:53.750Z,11.91
2019-03-21T11:11:24.462Z,11.90
2019-03-21T11:12:24.435Z,11.88
2019-03-21T11:13:55.197Z,11.85
2019-03-21T11:14:55.173Z,11.91
2019-03-21T11:16:25.944Z,11.95
2019-03-21T11:17:25.922Z,11.86
2019-03-21T11:18:35.768Z,11.95
2019-03-21T11:19:26.894Z,11.88
2019-03-21T11:20:25.879Z,11.86
2019-03-21T11:21:25.876Z,11.82
2019-03-21T11:22:25.873Z,11.78
2019-03-21T11:23:25.921Z,11.90
2019-03-21T11:24:25.847Z,11.99
2019-03-21T11:25:25.829Z,12.10
2019-03-21T11:26:25.815Z,12.05
2019-03-21T11:27:25.814Z,12.07
2019-03-21T11:28:25.799Z,12.01
2019-03-21T11:29:25.786Z,11.96
2019-03-21T11:30:25.774Z,12.01
2019-03-21T11:31:25.761Z,12.02
2019-03-21T11:32:25.753Z,12.04
2019-03-21T11:33:25.746Z,11.96
2019-03-21T11:34:25.749Z,12.04
2019-03-21T11:35:25.722Z,12.05
2019-03-21T11:36:33.790Z,11.96
2019-03-21T11:37:26.699Z,12.04
2019-03-21T11:38:25.689Z,11.98
2019-03-21T11:39:25.687Z,11.99
2019-03-21T11:40:25.666Z,11.99
2019-03-21T11:41:25.668Z,12.02
2019-03-21T11:42:26.669Z,12.04
2019-03-21T11:43:25.641Z,12.16
2019-03-21T11:44:25.628Z,12.05
2019-03-21T11:45:25.615Z,12.12
2019-03-21T11:46:25.613Z,12.12
2019-03-21T11:47:25.605Z,12.07
2019-03-21T11:48:25.583Z,12.01
2019-03-21T11:49:25.585Z,12.05
2019-03-21T11:50:25.569Z,12.07
2019-03-21T11:51:25.554Z,12.16
2019-03-21T11:52:25.533Z,12.16
2019-03-21T11:53:25.535Z,12.16
2019-03-21T11:54:25.515Z,12.23
2019-03-21T11:55:25.518Z,12.17
2019-03-21T11:56:25.502Z,12.19
2019-03-21T11:57:25.493Z,12.16
2019-03-21T11:58:25.480Z,12.14
2019-03-21T11:59:36.952Z,12.19
2019-03-21T12:00:26.457Z,12.29
2019-03-21T12:01:25.447Z,12.21
2019-03-21T12:02:27.358Z,12.27
2019-03-21T12:03:25.423Z,12.37
2019-03-21T12:04:25.409Z,12.38
2019-03-21T12:05:25.397Z,12.32
2019-03-21T12:06:25.397Z,12.29
2019-03-21T12:07:25.383Z,12.23
2019-03-21T12:08:25.374Z,12.28
2019-03-21T12:09:25.398Z,12.37
2019-03-21T12:10:25.344Z,12.21
2019-03-21T12:11:25.358Z,12.35
2019-03-21T12:12:25.323Z,12.20
2019-03-21T12:13:25.309Z,12.34
2019-03-21T12:14:25.315Z,12.31
2019-03-21T12:15:25.289Z,12.41
2019-03-21T12:16:25.275Z,12.34
2019-03-21T12:17:25.292Z,12.35
2019-03-21T12:18:25.262Z,12.34
2019-03-21T12:19:25.263Z,12.29
2019-03-21T12:20:25.235Z,12.21
2019-03-21T12:21:25.223Z,12.29
2019-03-21T12:22:30.075Z,12.27
2019-03-21T12:23:26.206Z,12.34
2019-03-21T12:24:25.203Z,12.23
2019-03-21T12:25:25.177Z,12.21
2019-03-21T12:26:25.169Z,12.17
2019-03-21T12:27:25.160Z,12.24
2019-03-21T12:28:25.149Z,12.24
2019-03-21T12:29:25.137Z,12.29
2019-03-21T12:30:25.129Z,12.23
2019-03-21T12:31:25.119Z,12.37
2019-03-21T12:32:25.104Z,12.32
2019-03-21T12:33:25.094Z,12.34
2019-03-21T12:34:25.090Z,12.39
2019-03-21T12:35:25.085Z,12.41
2019-03-21T12:36:25.069Z,12.39
2019-03-21T12:37:25.056Z,12.39
2019-03-21T12:38:25.039Z,12.45
2019-03-21T12:39:25.039Z,12.42
2019-03-21T12:40:25.016Z,12.42
2019-03-21T12:41:25.014Z,12.46
2019-03-21T12:42:25.014Z,12.47
2019-03-21T12:43:24.981Z,12.47
2019-03-21T12:44:24.972Z,12.41
2019-03-21T12:45:24.973Z,12.39
2019-03-21T12:46:24.948Z,12.37
2019-03-21T12:47:31.013Z,12.46
2019-03-21T12:48:25.927Z,12.54
2019-03-21T12:49:24.929Z,12.54
2019-03-21T12:50:24.909Z,12.53
2019-03-21T12:51:24.905Z,12.42
2019-03-21T12:52:24.892Z,12.49
2019-03-21T12:53:24.884Z,12.46
2019-03-21T12:54:24.861Z,12.47
2019-03-21T12:55:24.853Z,12.52
2019-03-21T12:56:24.841Z,12.57
2019-03-21T12:57:24.834Z,12.46
2019-03-21T12:58:24.827Z,12.47
2019-03-21T12:59:24.812Z,12.50